createdAt,value
2022-11-24T00:01:15.842Z,10.93
2022-11-24T00:03:44.556Z,10.93
2022-11-24T00:06:14.537Z,10.89
2022-11-24T00:08:43.452Z,10.90
2022-11-24T00:11:13.663Z,10.87
2022-11-24T00:13:40.892Z,10.81
2022-11-24T00:16:13.786Z,10.80
2022-11-24T00:18:42.443Z,10.77
2022-11-24T00:21:09.645Z,10.68
2022-11-24T00:23:37.509Z,10.71
2022-11-24T00:26:18.858Z,10.65
2022-11-24T00:28:47.931Z,10.60
2022-11-24T00:31:20.656Z,10.57
2022-11-24T00:33:49.406Z,10.36
2022-11-24T00:36:17.564Z,10.31
2022-11-24T00:38:45.422Z,10.27
2022-11-24T00:41:12.849Z,10.29
2022-11-24T00:43:40.013Z,10.32
2022-11-24T00:46:07.810Z,10.37
2022-11-24T00:48:34.848Z,10.32
2022-11-24T00:51:10.349Z,10.30
2022-11-24T00:53:37.364Z,10.31
2022-11-24T00:56:04.843Z,10.25
2022-11-24T00:58:32.710Z,10.29
2022-11-24T01:01:08.339Z,10.29
2022-11-24T01:03:35.516Z,10.24
2022-11-24T01:06:07.762Z,10.19
2022-11-24T01:08:36.367Z,10.02
2022-11-24T01:12:00.401Z,9.99
2022-11-24T01:14:28.062Z,9.95
2022-11-24T01:16:55.687Z,9.98
2022-11-24T01:19:23.006Z,10.00
2022-11-24T01:21:50.378Z,9.89
2022-11-24T01:24:17.225Z,9.85
2022-11-24T01:26:44.326Z,9.87
2022-11-24T01:29:12.307Z,9.84
2022-11-24T01:31:39.470Z,9.76
2022-11-24T01:34:06.464Z,9.80
2022-11-24T01:36:33.723Z,9.68
2022-11-24T01:39:00.631Z,9.76
2022-11-24T01:41:27.734Z,9.79
2022-11-24T01:43:56.014Z,9.74
2022-11-24T01:46:30.836Z,9.74
2022-11-24T01:49:27.013Z,9.81
2022-11-24T01:52:23.055Z,9.79
2022-11-24T01:54:56.433Z,9.77
2022-11-24T01:57:27.728Z,9.78
2022-11-24T02:00:01.753Z,9.72
2022-11-24T02:02:42.027Z,9.74
2022-11-24T02:05:17.651Z,9.66
2022-11-24T02:07:45.514Z,9.63
2022-11-24T02:10:14.596Z,9.64
2022-11-24T02:12:47.601Z,9.59
2022-11-24T02:15:15.420Z,9.63
2022-11-24T02:17:42.495Z,9.56
2022-11-24T02:20:10.905Z,9.58
2022-11-24T02:22:54.303Z,9.58
2022-11-24T02:25:59.427Z,9.46
2022-11-24T02:28:30.853Z,9.35
2022-11-24T02:30:59.972Z,9.30
2022-11-24T02:33:27.843Z,9.26
2022-11-24T02:35:54.889Z,9.25
2022-11-24T02:38:32.760Z,9.19
2022-11-24T02:41:02.803Z,9.15
2022-11-24T02:43:32.603Z,9.06
2022-11-24T02:45:59.484Z,9.06
2022-11-24T02:48:26.563Z,9.08
2022-11-24T02:50:53.405Z,9.08
2022-11-24T02:53:20.277Z,9.07
2022-11-24T02:55:47.075Z,9.12
2022-11-24T02:58:15.021Z,9.14
2022-11-24T03:00:41.986Z,9.15
2022-11-24T03:03:09.074Z,9.16
2022-11-24T03:05:35.957Z,9.19
2022-11-24T03:25:53.564Z,8.23
2022-11-24T03:28:20.397Z,8.40
2022-11-24T03:30:50.438Z,8.60
2022-11-24T03:33:17.265Z,8.73
2022-11-24T03:35:44.179Z,8.86
2022-11-24T03:38:10.987Z,8.94
2022-11-24T03:40:37.798Z,8.86
2022-11-24T03:43:04.583Z,8.81
2022-11-24T03:45:45.966Z,8.99
2022-11-24T03:48:14.469Z,9.08
2022-11-24T03:50:41.307Z,9.14
2022-11-24T03:53:08.246Z,9.20
2022-11-24T03:55:35.378Z,9.12
2022-11-24T03:58:02.451Z,9.07
2022-11-24T04:00:29.398Z,9.08
2022-11-24T04:02:56.364Z,8.97
2022-11-24T04:05:25.285Z,8.87
2022-11-24T04:07:56.537Z,8.82
2022-11-24T04:10:24.746Z,8.82
2022-11-24T04:12:51.648Z,8.82
2022-11-24T04:15:19.714Z,8.69
2022-11-24T04:17:47.771Z,8.67
2022-11-24T04:20:15.564Z,8.64
2022-11-24T04:22:43.325Z,8.74
2022-11-24T04:25:10.846Z,8.76
2022-11-24T04:27:37.972Z,8.68
2022-11-24T04:30:06.982Z,8.59
2022-11-24T04:32:33.815Z,8.50
2022-11-24T04:35:00.707Z,8.46
2022-11-24T04:37:28.102Z,8.47
2022-11-24T04:39:55.362Z,8.43
2022-11-24T04:42:22.238Z,8.39
2022-11-24T04:44:49.027Z,8.25
2022-11-24T04:47:18.453Z,8.23
2022-11-24T04:49:46.983Z,8.19
2022-11-24T04:52:13.802Z,8.22
2022-11-24T04:54:40.575Z,8.20
2022-11-24T04:57:07.438Z,8.16
2022-11-24T04:59:34.304Z,8.19
2022-11-24T05:02:01.148Z,8.11
2022-11-24T05:04:28.137Z,8.15
2022-11-24T05:06:55.320Z,8.10
2022-11-24T05:09:22.289Z,8.10
2022-11-24T05:11:49.209Z,8.11
2022-11-24T05:14:15.998Z,8.21
2022-11-24T05:16:42.873Z,8.19
2022-11-24T05:19:09.866Z,8.19
2022-11-24T05:21:36.680Z,8.16
2022-11-24T05:24:03.715Z,8.12
2022-11-24T05:26:30.791Z,8.18
2022-11-24T05:28:57.702Z,8.08
2022-11-24T05:31:24.624Z,8.10
2022-11-24T05:33:51.541Z,8.15
2022-11-24T05:36:36.933Z,8.28
2022-11-24T05:39:03.884Z,8.17
2022-11-24T05:41:30.723Z,8.07
2022-11-24T05:43:57.481Z,8.15
2022-11-24T05:46:24.384Z,8.31
2022-11-24T05:48:51.161Z,8.43
2022-11-24T05:51:18.161Z,8.40
2022-11-24T05:53:44.970Z,8.41
2022-11-24T05:56:11.853Z,8.34
2022-11-24T05:58:38.643Z,8.39
2022-11-24T06:01:07.502Z,8.39
2022-11-24T06:03:34.585Z,8.35
2022-11-24T06:06:01.936Z,8.25
2022-11-24T06:08:31.277Z,8.32
2022-11-24T06:11:17.655Z,8.74
2022-11-24T06:13:46.186Z,8.73
2022-11-24T06:16:13.429Z,9.37
2022-11-24T06:18:40.364Z,10.16
2022-11-24T06:21:11.848Z,10.73
2022-11-24T06:23:39.759Z,11.71
2022-11-24T06:26:06.920Z,12.51
2022-11-24T06:28:33.752Z,13.25
2022-11-24T06:31:04.564Z,13.99
2022-11-24T06:33:36.282Z,14.05
2022-11-24T06:36:08.842Z,14.01
2022-11-24T06:38:36.831Z,14.70
2022-11-24T06:41:09.728Z,14.97
2022-11-24T06:43:36.797Z,15.64
2022-11-24T06:46:04.363Z,15.69
2022-11-24T06:48:31.674Z,15.99
2022-11-24T06:51:03.428Z,16.54
2022-11-24T06:53:38.410Z,16.12
2022-11-24T06:56:13.818Z,15.42
2022-11-24T06:58:45.221Z,14.73
2022-11-24T07:01:26.391Z,14.52
2022-11-24T07:03:54.555Z,14.08
2022-11-24T07:06:23.379Z,13.28
2022-11-24T07:08:51.281Z,12.68
2022-11-24T07:11:20.773Z,12.34
2022-11-24T07:13:48.662Z,12.37
2022-11-24T07:16:21.683Z,12.13
2022-11-24T07:18:51.310Z,12.40
2022-11-24T07:21:19.777Z,12.99
2022-11-24T07:23:51.273Z,13.03
2022-11-24T07:26:19.363Z,12.98
2022-11-24T07:28:46.919Z,13.31
2022-11-24T07:31:19.228Z,12.76
2022-11-24T07:33:54.040Z,12.71
2022-11-24T07:36:21.538Z,13.01
2022-11-24T07:38:49.170Z,14.11
2022-11-24T07:41:19.496Z,13.99
2022-11-24T07:43:46.972Z,13.69
2022-11-24T07:46:15.709Z,14.30
2022-11-24T07:48:42.664Z,14.82
2022-11-24T07:51:09.901Z,14.91
2022-11-24T07:53:37.706Z,15.90
2022-11-24T07:56:06.445Z,16.82
2022-11-24T07:58:36.139Z,16.33
2022-11-24T08:01:15.288Z,16.43
2022-11-24T08:03:43.218Z,16.32
2022-11-24T08:06:30.303Z,15.90
2022-11-24T08:08:58.214Z,15.48
2022-11-24T08:11:25.687Z,15.61
2022-11-24T08:13:52.709Z,15.68
2022-11-24T08:16:20.445Z,15.92
2022-11-24T08:18:53.273Z,16.31
2022-11-24T08:21:20.682Z,16.11
2022-11-24T08:23:47.631Z,16.53
2022-11-24T08:26:17.924Z,15.68
2022-11-24T08:28:47.015Z,16.49
2022-11-24T08:31:18.652Z,17.70
2022-11-24T08:33:46.828Z,19.08
2022-11-24T08:36:16.404Z,20.07
2022-11-24T08:38:44.743Z,19.60
2022-11-24T08:41:14.718Z,18.87
2022-11-24T08:43:41.705Z,17.32
2022-11-24T08:46:16.954Z,17.07
2022-11-24T08:48:48.406Z,18.13
2022-11-24T08:51:18.227Z,18.87
2022-11-24T08:53:45.461Z,19.18
2022-11-24T08:56:13.426Z,19.32
2022-11-24T08:58:41.301Z,19.16
2022-11-24T09:01:14.072Z,20.14
2022-11-24T09:03:48.490Z,19.11
2022-11-24T09:06:18.758Z,18.78
2022-11-24T09:08:45.660Z,20.86
2022-11-24T09:11:15.273Z,21.43
2022-11-24T09:13:42.895Z,22.08
2022-11-24T09:16:18.658Z,20.67
2022-11-24T09:18:46.501Z,19.48
2022-11-24T09:21:16.157Z,18.34
2022-11-24T09:23:44.253Z,18.47
2022-11-24T09:26:19.946Z,17.99
2022-11-24T09:28:48.150Z,18.19
2022-11-24T09:31:17.220Z,17.92
2022-11-24T09:33:44.804Z,18.27
2022-11-24T09:36:12.312Z,18.81
2022-11-24T09:38:39.431Z,19.15
2022-11-24T09:41:39.316Z,18.41
2022-11-24T09:44:34.138Z,18.16
2022-11-24T09:47:24.390Z,17.98
2022-11-24T09:50:24.364Z,18.24
2022-11-24T09:53:14.945Z,17.79
2022-11-24T09:55:47.608Z,17.42
2022-11-24T09:58:31.410Z,17.02
2022-11-24T10:01:01.535Z,17.01
2022-11-24T10:03:43.599Z,17.78
2022-11-24T10:06:26.974Z,18.31
2022-11-24T10:09:26.027Z,19.08
2022-11-24T10:12:27.713Z,19.65
2022-11-24T10:15:00.308Z,20.95
2022-11-24T10:17:50.049Z,17.99
2022-11-24T10:20:16.930Z,18.21
2022-11-24T10:23:21.487Z,17.25
2022-11-24T10:25:58.800Z,16.91
2022-11-24T10:28:46.055Z,16.12
2022-11-24T10:31:18.421Z,15.07
2022-11-24T10:33:47.109Z,14.53
2022-11-24T10:36:26.272Z,14.45
2022-11-24T10:39:01.410Z,14.14
2022-11-24T10:41:44.192Z,13.96
2022-11-24T10:44:15.528Z,14.01
2022-11-24T10:46:42.656Z,13.76
2022-11-24T10:49:20.445Z,13.52
2022-11-24T10:52:01.469Z,13.32
2022-11-24T10:54:28.378Z,13.42
2022-11-24T10:56:55.920Z,13.24
2022-11-24T10:59:29.458Z,12.85
2022-11-24T11:01:56.781Z,12.73
2022-11-24T11:04:33.091Z,12.82
2022-11-24T11:07:16.813Z,12.67
2022-11-24T11:09:43.621Z,12.67
2022-11-24T11:12:45.742Z,12.43
2022-11-24T11:15:25.189Z,12.51
2022-11-24T11:17:57.499Z,12.49
2022-11-24T11:20:32.628Z,12.49
2022-11-24T11:23:14.033Z,12.55
2022-11-24T11:25:41.313Z,12.44
2022-11-24T11:28:18.319Z,12.66
2022-11-24T11:31:22.041Z,12.62
2022-11-24T11:34:12.508Z,12.70
2022-11-24T11:36:48.313Z,12.48
2022-11-24T11:39:23.500Z,12.37
2022-11-24T11:41:56.517Z,12.31
2022-11-24T11:44:26.898Z,12.22
2022-11-24T11:46:55.884Z,12.13
2022-11-24T11:49:23.178Z,12.08
2022-11-24T11:52:04.986Z,12.01
2022-11-24T11:55:04.364Z,11.99
2022-11-24T11:58:09.966Z,11.99
2022-11-24T12:00:45.518Z,11.94
2022-11-24T12:03:15.293Z,12.09
2022-11-24T12:05:56.327Z,11.98
2022-11-24T12:09:03.305Z,12.00
2022-11-24T12:11:54.024Z,12.23
2022-11-24T12:14:45.618Z,11.99
2022-11-24T12:17:25.987Z,11.84
2022-11-24T12:20:31.238Z,11.64
2022-11-24T12:23:14.132Z,11.55
2022-11-24T12:25:57.838Z,11.42
2022-11-24T12:28:42.654Z,11.18
2022-11-24T12:31:37.885Z,11.10
2022-11-24T12:34:23.358Z,11.08
2022-11-24T12:37:21.848Z,11.04
2022-11-24T12:40:13.686Z,10.99
2022-11-24T12:42:53.047Z,10.97
2022-11-24T12:45:33.986Z,11.00
2022-11-24T12:48:12.688Z,11.08
2022-11-24T12:50:42.234Z,11.09
2022-11-24T12:53:16.162Z,10.86
2022-11-24T12:55:43.815Z,10.74
2022-11-24T12:58:13.726Z,10.63
2022-11-24T13:00:59.135Z,10.57
2022-11-24T13:03:55.047Z,10.49
2022-11-24T13:06:34.915Z,10.46
2022-11-24T13:09:12.317Z,10.46
2022-11-24T13:11:42.276Z,10.32
2022-11-24T13:14:17.992Z,10.25
2022-11-24T13:17:21.890Z,10.27
2022-11-24T13:19:41.838Z,10.24
2022-11-24T13:22:08.599Z,10.23
2022-11-24T13:24:38.580Z,10.30
2022-11-24T13:27:24.499Z,10.38
2022-11-24T13:29:52.862Z,10.37
2022-11-24T13:32:19.783Z,10.42
2022-11-24T13:34:54.779Z,10.42
2022-11-24T13:37:34.564Z,10.48
2022-11-24T13:40:12.256Z,10.52
2022-11-24T13:43:03.153Z,10.63
2022-11-24T13:45:39.238Z,10.68
2022-11-24T13:48:44.649Z,10.59
2022-11-24T13:51:17.419Z,10.61
2022-11-24T13:53:50.480Z,10.47
2022-11-24T13:56:17.306Z,10.35
2022-11-24T13:58:48.306Z,10.28
2022-11-24T14:01:31.269Z,10.26
2022-11-24T14:04:36.257Z,10.13
2022-11-24T14:07:09.522Z,9.91
2022-11-24T14:09:44.446Z,9.77
2022-11-24T14:12:21.873Z,9.57
2022-11-24T14:14:51.416Z,9.41
2022-11-24T14:17:22.951Z,9.35
2022-11-24T14:19:52.851Z,9.43
2022-11-24T14:22:40.132Z,9.33
2022-11-24T14:25:26.842Z,9.22
2022-11-24T14:27:53.951Z,9.14
2022-11-24T14:30:22.871Z,9.12
2022-11-24T14:32:57.174Z,9.09
2022-11-24T14:35:25.631Z,9.04
2022-11-24T14:37:52.876Z,8.93
2022-11-24T14:40:51.851Z,8.84
2022-11-24T14:43:32.813Z,8.85
2022-11-24T14:46:02.874Z,8.77
2022-11-24T14:48:36.268Z,8.79
2022-11-24T14:51:06.493Z,8.73
2022-11-24T14:53:34.593Z,8.73
2022-11-24T14:56:22.465Z,8.81
2022-11-24T14:58:49.738Z,8.82
2022-11-24T15:01:29.384Z,8.85
2022-11-24T15:04:38.817Z,8.82
2022-11-24T15:07:26.359Z,8.79
2022-11-24T15:09:58.035Z,8.75
2022-11-24T15:28:01.188Z,8.47
2022-11-24T15:30:29.449Z,8.55
2022-11-24T15:32:58.560Z,8.63
2022-11-24T15:35:29.086Z,8.71
2022-11-24T15:37:55.980Z,8.76
2022-11-24T15:40:23.335Z,8.85
2022-11-24T15:42:52.602Z,8.81
2022-11-24T15:45:20.943Z,8.79
2022-11-24T15:47:47.796Z,8.82
2022-11-24T15:50:15.325Z,8.83
2022-11-24T15:52:42.947Z,8.84
2022-11-24T15:55:22.701Z,8.87
2022-11-24T15:57:49.984Z,8.86
2022-11-24T16:00:19.065Z,8.87
2022-11-24T16:02:45.953Z,8.79
2022-11-24T16:05:13.869Z,8.71
2022-11-24T16:07:40.824Z,8.76
2022-11-24T16:10:33.654Z,8.72
2022-11-24T16:13:00.730Z,8.68
2022-11-24T16:15:27.811Z,8.63
2022-11-24T16:17:54.695Z,8.68
2022-11-24T16:20:21.917Z,8.67
2022-11-24T16:22:48.807Z,8.69
2022-11-24T16:25:15.731Z,8.56
2022-11-24T16:27:42.684Z,8.55
2022-11-24T16:30:12.232Z,8.64
2022-11-24T16:32:39.444Z,8.61
2022-11-24T16:35:06.508Z,8.50
2022-11-24T16:37:33.571Z,8.57
2022-11-24T16:40:02.531Z,8.57
2022-11-24T16:42:29.940Z,8.57
2022-11-24T16:44:56.913Z,8.56
2022-11-24T16:47:24.059Z,8.53
2022-11-24T16:49:50.922Z,8.51
2022-11-24T16:52:18.028Z,8.41
2022-11-24T16:54:47.894Z,8.34
2022-11-24T16:57:15.713Z,8.30
2022-11-24T16:59:48.862Z,8.22
2022-11-24T17:02:16.152Z,8.13
2022-11-24T17:04:43.093Z,8.14
2022-11-24T17:07:09.973Z,8.11
2022-11-24T17:09:40.529Z,8.14
2022-11-24T17:12:07.987Z,8.05
2022-11-24T17:14:35.111Z,8.06
2022-11-24T17:17:03.157Z,7.96
2022-11-24T17:19:31.890Z,7.95
2022-11-24T17:21:58.960Z,7.88
2022-11-24T17:24:26.444Z,7.86
2022-11-24T17:26:53.394Z,7.79
2022-11-24T17:29:20.340Z,7.74
2022-11-24T17:31:47.636Z,7.69
2022-11-24T17:34:14.581Z,7.64
2022-11-24T17:36:44.718Z,7.61
2022-11-24T17:39:11.781Z,7.60
2022-11-24T17:41:38.721Z,7.64
2022-11-24T17:44:07.504Z,7.59
2022-11-24T17:46:34.910Z,7.52
2022-11-24T17:49:01.817Z,7.52
2022-11-24T17:51:28.693Z,7.46
2022-11-24T17:53:57.396Z,7.39
2022-11-24T17:56:27.194Z,7.36
2022-11-24T17:58:56.445Z,7.33
2022-11-24T18:01:24.402Z,7.30
2022-11-24T18:03:53.678Z,7.23
2022-11-24T18:06:24.181Z,7.23
2022-11-24T18:08:52.134Z,7.15
2022-11-24T18:11:30.659Z,7.16
2022-11-24T18:14:01.962Z,7.07
2022-11-24T18:16:31.171Z,6.99
2022-11-24T18:19:10.060Z,6.94
2022-11-24T18:21:39.419Z,6.91
2022-11-24T18:24:07.575Z,6.86
2022-11-24T18:26:34.590Z,6.84
2022-11-24T18:29:01.482Z,6.83
2022-11-24T18:31:29.515Z,6.87
2022-11-24T18:33:56.897Z,6.82
2022-11-24T18:36:29.878Z,6.69
2022-11-24T18:38:57.065Z,6.77
2022-11-24T18:41:23.930Z,6.74
2022-11-24T18:43:50.892Z,6.76
2022-11-24T18:46:18.710Z,6.66
2022-11-24T18:48:45.999Z,6.66
2022-11-24T18:51:16.266Z,6.67
2022-11-24T18:53:44.852Z,6.70
2022-11-24T18:56:14.111Z,6.66
2022-11-24T18:58:41.145Z,6.64
2022-11-24T19:01:10.856Z,6.67
2022-11-24T19:03:46.514Z,6.74
2022-11-24T19:06:21.181Z,6.67
2022-11-24T19:08:49.260Z,6.64
2022-11-24T19:11:28.327Z,6.67
2022-11-24T19:13:56.659Z,6.69
2022-11-24T19:16:24.760Z,6.64
2022-11-24T19:18:54.378Z,6.63
2022-11-24T19:21:21.984Z,6.65
2022-11-24T19:23:49.592Z,6.66
2022-11-24T19:26:16.500Z,6.64
2022-11-24T19:28:43.592Z,6.54
2022-11-24T19:31:12.667Z,6.56
2022-11-24T19:33:40.588Z,6.64
2022-11-24T19:36:12.220Z,6.57
2022-11-24T19:38:41.150Z,6.47
2022-11-24T19:41:10.816Z,6.47
2022-11-24T19:43:38.775Z,6.48
2022-11-24T19:46:12.406Z,6.49
2022-11-24T19:48:44.718Z,6.44
2022-11-24T19:51:19.338Z,6.39
2022-11-24T19:53:46.864Z,6.41
2022-11-24T19:56:19.802Z,6.41
2022-11-24T19:58:47.755Z,6.35
2022-11-24T20:01:16.296Z,6.32
2022-11-24T20:03:44.663Z,6.36
2022-11-24T20:06:13.535Z,6.34
2022-11-24T20:08:41.857Z,6.35
2022-11-24T20:11:17.402Z,6.30
2022-11-24T20:13:46.203Z,6.33
2022-11-24T20:16:26.214Z,6.33
2022-11-24T20:18:55.047Z,6.32
2022-11-24T20:21:24.374Z,6.25
2022-11-24T20:24:03.009Z,6.28
2022-11-24T20:26:35.307Z,6.29
2022-11-24T20:29:02.541Z,6.29
2022-11-24T20:31:36.247Z,6.25
2022-11-24T20:34:04.815Z,6.25
2022-11-24T20:36:33.358Z,6.26
2022-11-24T20:39:02.271Z,6.26
2022-11-24T20:41:32.153Z,6.24
2022-11-24T20:44:01.234Z,6.33
2022-11-24T20:46:30.803Z,6.32
2022-11-24T20:48:58.306Z,6.39
2022-11-24T20:51:28.597Z,6.32
2022-11-24T20:54:01.022Z,6.30
2022-11-24T20:56:30.604Z,6.35
2022-11-24T20:58:58.435Z,6.38
2022-11-24T21:01:28.336Z,6.40
2022-11-24T21:03:58.290Z,6.34
2022-11-24T21:06:26.613Z,6.42
2022-11-24T21:08:55.974Z,6.47
2022-11-24T21:11:25.206Z,6.49
2022-11-24T21:13:52.447Z,6.41
2022-11-24T21:16:29.637Z,6.45
2022-11-24T21:18:59.276Z,6.48
2022-11-24T21:21:33.444Z,6.46
2022-11-24T21:24:04.931Z,6.44
2022-11-24T21:26:34.344Z,6.42
2022-11-24T21:29:01.339Z,6.39
2022-11-24T21:31:28.218Z,6.45
2022-11-24T21:33:55.267Z,6.34
2022-11-24T21:36:24.746Z,6.30
2022-11-24T21:38:53.510Z,6.34
2022-11-24T21:41:21.497Z,6.32
2022-11-24T21:43:48.848Z,6.27
2022-11-24T21:46:16.506Z,6.21
2022-11-24T21:48:43.850Z,6.26
2022-11-24T21:51:13.847Z,6.27
2022-11-24T21:53:41.490Z,6.28
2022-11-24T21:56:13.071Z,6.18
2022-11-24T21:58:48.043Z,6.18
2022-11-24T22:01:16.827Z,6.19
2022-11-24T22:03:44.259Z,6.16
2022-11-24T22:06:12.029Z,6.14
2022-11-24T22:08:39.049Z,6.15
2022-11-24T22:11:15.099Z,6.17
2022-11-24T22:13:43.248Z,6.17
2022-11-24T22:16:23.844Z,6.12
2022-11-24T22:18:51.325Z,6.07
2022-11-24T22:21:24.342Z,6.09
2022-11-24T22:23:55.268Z,6.11
2022-11-24T22:26:23.834Z,6.12
2022-11-24T22:28:51.285Z,6.02
2022-11-24T22:31:23.380Z,6.05
2022-11-24T22:33:51.354Z,6.04
2022-11-24T22:36:20.944Z,6.00
2022-11-24T22:38:52.422Z,5.94
2022-11-24T22:41:19.201Z,5.96
2022-11-24T22:43:46.971Z,5.95
2022-11-24T22:46:21.989Z,5.94
2022-11-24T22:48:52.978Z,5.90
2022-11-24T22:51:25.467Z,5.84
2022-11-24T22:53:55.926Z,5.87
2022-11-24T22:56:23.453Z,5.86
2022-11-24T22:58:51.174Z,5.85
2022-11-24T23:01:20.452Z,5.76
2022-11-24T23:03:48.840Z,5.84
2022-11-24T23:06:21.018Z,5.82
2022-11-24T23:08:48.415Z,5.83
2022-11-24T23:11:32.596Z,5.76
2022-11-24T23:14:02.950Z,5.71
2022-11-24T23:16:30.710Z,5.71
2022-11-24T23:18:58.207Z,5.70
2022-11-24T23:21:29.184Z,5.65
2022-11-24T23:23:57.912Z,5.62
2022-11-24T23:26:27.402Z,5.64
2022-11-24T23:28:54.622Z,5.67
2022-11-24T23:31:24.523Z,5.65
2022-11-24T23:33:51.545Z,5.56
2022-11-24T23:36:20.475Z,5.59
2022-11-24T23:38:48.051Z,5.58
2022-11-24T23:41:20.866Z,5.59
2022-11-24T23:43:47.849Z,5.53
2022-11-24T23:46:21.029Z,5.50
2022-11-24T23:48:48.866Z,5.49
2022-11-24T23:51:24.670Z,5.50
2022-11-24T23:53:52.217Z,5.45
2022-11-24T23:56:24.880Z,5.38
2022-11-24T23:58:51.837Z,5.39
